Detall de PIREP

Printer-friendly versionPDF version

[2014/10/24 12:51:00]
Flight IATA:CT3416
Pilot Number:042
Company ICAO:CAT
Aircraft Type:A320/E
PAX:26
Departing Airport: LEBL
Destination Airport: LATI
Alternate Airport:LYPG
Online: VATSIM
Route:VERSO LAPIT UN725 ORKUM BRD UP92 PAPIZ DIRES
Flight Level:F350
No Slew and time accel
No pause
Crash detect
Detect pilot in Cockpit between each 30 and 45 minutes
12:51 Zero fuel Weight: 124282 Lbs, Fuel Weight: 42167 Lbs
12:51 VATSIM:LEBL 241130Z 28004KT 240V360 CAVOK 24/08 Q1016 NOSIG
12:51 VATSIM:LATI 241150Z 32007KT 9999 FEW040 SCT055 BKN070 14/05 Q1006 NOSIG
12:54 Parking Brakes off
13:04 Take-off
13:04 Take off Weight: 165094 Lbs
13:04 Wind: 286º @ 004 Knots Heading: 247º
13:04 POS N41º 16´ 57´´ E002º 04´ 31´´
13:04 Gear Up: 144 Knots
13:04 Flaps:3 at 144 Knots
13:06 Flaps:2 at 161 Knots
13:06 Flaps:0 at 166 Knots
13:19 Wind:315º@021 Knots Heading: 072º Ground Speed: 464 Knots Altitude 30150 ft
13:25 TOC
13:25 Fuel Weight: 36721 Lb
13:34 Wind:323º@028 Knots Heading: 094º Ground Speed: 465 Knots Altitude 35062 ft
13:49 Wind:346º@042 Knots Heading: 078º Ground Speed: 450 Knots Altitude 35019 ft
14:04 Wind:349º@040 Knots Heading: 080º Ground Speed: 449 Knots Altitude 34970 ft
14:19 Wind:349º@047 Knots Heading: 101º Ground Speed: 466 Knots Altitude 34619 ft
14:33 TOD
14:33 Fuel Weight: 31001 Lb
14:34 Wind:000º@059 Knots Heading: 081º Ground Speed: 397 Knots Altitude 34583 ft
14:49 Wind:019º@037 Knots Heading: 084º Ground Speed: 317 Knots Altitude 28280 ft
15:04 Wind:122º@012 Knots Heading: 050º Ground Speed: 253 Knots Altitude 14452 ft
15:11 Flaps:1 at 204 Knots
15:15 Flaps:3 at 174 Knots
15:15 Gear Down: 173 Knots
15:16 Flaps:4 at 159 Knots
15:16 Flaps:5 at 158 Knots
15:18 TouchDown:Rate -312 ft/min Speed: 136 Knots
15:19 Wind:000º@002 Knots Heading: 351º Ground Speed: 066 Knots Altitude 121 ft
15:19 VATSIM:LATI 241420Z 35003KT 330V050 9999 FEW030TCU SCT060 BKN080 15/07 Q1006 NOSIG
15:19 Land
15:19 Wind:000º@002 Knots
15:19 Heading: 355º
15:19 Flight Duration: 02:15
15:19 Landing Weight: 153376 Lbs
15:19 POS N41º 25´ 25´´ E019º 43´ 09´´
15:21 Parking brakes on
15:21 Block to Block Duration: 02:27
15:21 Final Fuel: 28791 Lbls
15:21 Spent Fuel: 13375 Lbls
15:21 Flight Length: 868 NM
15:21 TOD Land Length: 213 NM

Exportar CSV

Powered by Drupal - Modified by Danger4k